Decoded Metar for GCTS (TENERIFE in SPAIN) (IATA:TFS) | Meteo·Mobile Aviation Weather
aviador You're here:

GCTS Decoded Metar

TENERIFE in SPAIN
Report Time2019-07-19 18:30:00
UTC Time2019-07-19 18:52:03
Flight Rules vfr VFR
Wind080° at 19 kt
W.Decomp.*RWY 08: 18.9 kt HW 2.0 kt RCW
Visibility9999 m
Phenomena:N/A
Clouds:Scattered 036 Hf
Expected CloudBase > 3,200 ft AGL from Temp-Dew spread
CeilingNone
Temp25°C (ISA +10)
Dew Point17°C (61% RH)
AAT20.5°C
QNH1016 hPa
Density Alt1,604 ft
Elevation236 ft
Report Wrong Elevation
Raw Report
GCTS 191830Z 08019KT 9999 SCT036 25/17 Q1016 WS R07 NOSIG=

Extra information for GCTS:More info

Metar Taf Metar & Taf Last 4 Metars F.Rules Stats Wind Profile Meteogram Temp Stats Airport Information Weather charts Add Link Nearby VenuesMetar ALERT Operation Metar Decoded Social comments